메인 페이지
METAR-TAF:

METAR-TAF

공항 :

Ozark, 앨라배마, 미국

위도: 31-17N, 경도: 085-43W, 고도: 91m

현재 날씨관측

예보는 26분 전, 01:34시(UTC)에 발표되었습니다.
무풍
온도 23°C
습도 94%
기압 1017 hPa
시정: 16.1km
맑음

METAR: KOZR 300134Z AUTO 00000KT 10SM CLR 23/22 A3002 RMK AO2 SLP165

시각: 21:00 (02:00 UTC)

예보

예보는 2 시간 0분 전, 00:00시(UTC)에 발표되었습니다.
예보 대상 시간: 30일 00시부터 31일 06시까지 (UTC)
남남서6kt
시정 10km 이상
고도 2000ft 상공 구름 많음, 적란운.
고도 4000ft 상공 흐림
시계 내 뇌우
일시적
30일 00시부터 30일 02시까지 (UTC)
여러 방향의 바람 15kt, 순간 최대 풍속 25kt
시정: 8000m
고도 1600ft 상공 구름 많음, 적란운.
고도 2300ft 상공 흐림
뇌우, 약한비
전환 중
30일 08시부터 30일 09시까지 (UTC)
서남서6kt
시정: 4800m
고도 700ft 상공 흐림
박무
전환 중
30일 12시부터 30일 13시까지 (UTC)
여러 방향의 바람 6kt
시정: 4800m
고도 1600ft 상공 구름 보통
박무
전환 중
30일 17시부터 30일 18시까지 (UTC)
여러 방향의 바람 6kt
시정: 8000m
고도 4500ft 상공 구름 보통, 적란운.
고도 8000ft 상공 구름 보통
시계 내 뇌우
전환 중
31일 01시부터 31일 02시까지 (UTC)
6kt
시정: 9000m
고도 4000ft 상공 구름 조금
고도 5000ft 상공 구름 많음
약한소나기

TAF: KOZR 300000Z 3000/3106 20006KT 9999 VCTS BKN020CB OVC040 QNH2998INS TEMPO 3000/3002 VRB15G25KT 8000 -TSRA BKN016CB OVC023 BECMG 3008/3009 24006KT 4800 BR OVC007 QNH3000INS BECMG 3012/3013 VRB06KT 4800 BR SCT016 QNH3002INS BECMG 3017/3018 VRB06KT 8000 VCTS SCT045CB SCT080 QNH2994INS BECMG 3101/3102 28006KT 9000 -SHRA FEW040 BKN050 QNH2998INS TX32/3021Z TN20/3011Z

4,000개 이상의 공항 관측 자료 및 예보 (METAR 및 TAF 보고).

지도상에서 검색 가능한 기상관측소가 노란 점과 빨간 점으로 표시되어 있습니다.

기상관측소 명을 보려면 표시 위로 마우스를 이동하세요.

날씨 관측과 예보를 보려면 클릭하세요.

지도 변경 : 확대하려면 엑스 표시가 있는 녹색 버튼, 축소하려면 빼기 표시가 있는 녹색 버튼, 다음 페이지의 지도를 보려면 녹색 화살표를 클릭하세요.


METAR-TAF: